createdAt,value
2022-12-08T00:02:19.325Z,10.90
2022-12-08T00:05:16.617Z,12.30
2022-12-08T00:08:10.720Z,12.93
2022-12-08T00:10:52.658Z,14.00
2022-12-08T00:13:26.887Z,15.77
2022-12-08T00:16:03.132Z,13.00
2022-12-08T00:18:41.651Z,13.97
2022-12-08T00:21:15.758Z,14.50
2022-12-08T00:23:52.132Z,18.03
2022-12-08T00:26:26.440Z,14.00
2022-12-08T00:29:01.722Z,14.43
2022-12-08T00:31:36.274Z,14.87
2022-12-08T00:34:11.757Z,15.97
2022-12-08T00:36:47.500Z,13.87
2022-12-08T00:39:24.594Z,15.30
2022-12-08T00:42:16.233Z,13.47
2022-12-08T00:44:57.904Z,13.60
2022-12-08T00:47:32.025Z,13.77
2022-12-08T00:50:07.360Z,14.37
2022-12-08T00:52:41.995Z,15.80
2022-12-08T00:55:19.189Z,14.30
2022-12-08T00:57:53.498Z,12.60
2022-12-08T01:00:27.580Z,13.70
2022-12-08T01:03:01.896Z,13.93
2022-12-08T01:05:36.637Z,13.30
2022-12-08T01:08:17.231Z,13.37
2022-12-08T01:10:52.865Z,15.30
2022-12-08T01:13:26.613Z,13.13
2022-12-08T01:16:08.039Z,13.53
2022-12-08T01:18:42.056Z,12.53
2022-12-08T01:21:16.544Z,11.70
2022-12-08T01:23:53.553Z,12.83
2022-12-08T01:26:30.584Z,11.73
2022-12-08T01:29:05.062Z,12.40
2022-12-08T01:31:39.683Z,11.40
2022-12-08T01:34:14.560Z,11.80
2022-12-08T01:36:52.200Z,12.57
2022-12-08T01:39:32.768Z,11.97
2022-12-08T01:42:20.323Z,11.60
2022-12-08T01:44:59.838Z,12.50
2022-12-08T01:47:42.491Z,13.03
2022-12-08T01:50:21.282Z,11.77
2022-12-08T01:53:03.780Z,12.97
2022-12-08T01:55:47.765Z,11.63
2022-12-08T01:58:28.737Z,13.57
2022-12-08T02:01:02.952Z,13.73
2022-12-08T02:03:45.619Z,13.93
2022-12-08T02:06:21.278Z,14.37
2022-12-08T02:08:59.444Z,15.33
2022-12-08T02:11:33.007Z,13.53
2022-12-08T02:14:12.033Z,14.60
2022-12-08T02:16:59.559Z,14.80
2022-12-08T02:20:40.922Z,14.10
2022-12-08T02:23:32.977Z,13.63
2022-12-08T02:27:06.181Z,14.63
2022-12-08T02:30:26.167Z,14.33
2022-12-08T02:34:09.779Z,14.77
2022-12-08T02:37:01.204Z,15.57
2022-12-08T02:39:46.541Z,15.77
2022-12-08T02:42:32.693Z,16.57
2022-12-08T02:45:17.488Z,16.53
2022-12-08T02:47:53.610Z,15.67
2022-12-08T02:50:30.389Z,17.43
2022-12-08T02:55:54.570Z,14.47
2022-12-08T02:58:55.114Z,14.90
2022-12-08T03:01:54.014Z,15.67
2022-12-08T03:04:47.362Z,15.03
2022-12-08T03:07:34.277Z,16.90
2022-12-08T03:10:17.527Z,15.27
2022-12-08T03:13:01.806Z,16.57
2022-12-08T03:15:39.635Z,18.03
2022-12-08T03:18:19.005Z,16.47
2022-12-08T03:20:57.522Z,17.57
2022-12-08T03:23:35.643Z,17.97
2022-12-08T03:26:23.238Z,16.53
2022-12-08T03:29:10.990Z,17.37
2022-12-08T03:31:59.437Z,17.90
2022-12-08T03:34:35.611Z,16.90
2022-12-08T03:37:09.552Z,15.97
2022-12-08T03:39:46.053Z,15.63
2022-12-08T03:42:20.228Z,17.87
2022-12-08T03:44:55.218Z,16.53
2022-12-08T03:47:29.271Z,15.27
2022-12-08T03:50:04.104Z,16.27
2022-12-08T03:52:38.396Z,16.23
2022-12-08T03:55:13.800Z,16.03
2022-12-08T03:57:50.380Z,16.23
2022-12-08T04:00:25.203Z,17.50
2022-12-08T04:03:00.353Z,14.37
2022-12-08T04:05:43.650Z,16.57
2022-12-08T04:08:19.324Z,15.43
2022-12-08T04:11:02.761Z,16.53
2022-12-08T04:13:42.491Z,13.77
2022-12-08T04:16:21.485Z,14.17
2022-12-08T04:18:58.073Z,15.30
2022-12-08T04:21:35.258Z,14.80
2022-12-08T04:24:11.418Z,14.30
2022-12-08T04:26:51.137Z,13.80
2022-12-08T04:29:27.278Z,14.60
2022-12-08T04:32:02.095Z,14.03
2022-12-08T04:34:35.904Z,14.27
2022-12-08T04:37:10.299Z,13.57
2022-12-08T04:39:44.114Z,15.03
2022-12-08T04:42:19.373Z,14.93
2022-12-08T04:44:53.118Z,13.27
2022-12-08T04:47:30.770Z,12.43
2022-12-08T04:50:06.606Z,11.87
2022-12-08T04:52:55.113Z,13.00
2022-12-08T04:55:30.195Z,11.77
2022-12-08T04:58:07.007Z,11.37
2022-12-08T05:00:46.434Z,10.73
2022-12-08T05:03:26.736Z,11.27
2022-12-08T05:06:13.405Z,11.23
2022-12-08T05:08:47.678Z,10.23
2022-12-08T05:11:21.766Z,10.03
2022-12-08T05:13:57.375Z,10.90
2022-12-08T05:16:31.637Z,9.63
2022-12-08T05:19:07.818Z,10.50
2022-12-08T05:21:41.861Z,9.70
2022-12-08T05:24:18.748Z,9.13
2022-12-08T05:27:01.486Z,9.60
2022-12-08T05:29:37.819Z,8.97
2022-12-08T05:32:11.865Z,9.63
2022-12-08T05:34:46.802Z,10.03
2022-12-08T05:37:22.456Z,10.47
2022-12-08T05:39:57.046Z,11.20
2022-12-08T05:42:30.637Z,11.53
2022-12-08T05:45:07.521Z,11.37
2022-12-08T05:47:41.117Z,11.87
2022-12-08T05:50:15.017Z,11.13
2022-12-08T05:52:53.267Z,11.23
2022-12-08T05:55:37.355Z,12.00
2022-12-08T05:58:27.467Z,11.80
2022-12-08T06:01:03.823Z,11.00
2022-12-08T06:03:38.627Z,11.67
2022-12-08T06:06:14.843Z,11.10
2022-12-08T06:08:49.342Z,9.53
2022-12-08T06:11:26.861Z,11.10
2022-12-08T06:14:02.252Z,11.37
2022-12-08T06:16:38.477Z,11.53
2022-12-08T06:19:12.588Z,10.27
2022-12-08T06:21:49.049Z,9.77
2022-12-08T06:24:23.336Z,10.00
2022-12-08T06:26:57.549Z,10.27
2022-12-08T06:29:31.591Z,9.67
2022-12-08T06:32:15.077Z,9.20
2022-12-08T06:34:51.013Z,8.37
2022-12-08T06:37:24.859Z,8.17
2022-12-08T06:39:58.502Z,7.57
2022-12-08T06:42:47.656Z,10.13
2022-12-08T06:45:21.843Z,8.67
2022-12-08T06:48:03.639Z,9.43
2022-12-08T06:50:55.084Z,8.57
2022-12-08T06:53:28.722Z,9.20
2022-12-08T06:56:06.595Z,8.70
2022-12-08T06:58:41.201Z,9.53
2022-12-08T07:01:17.182Z,9.37
2022-12-08T07:03:57.701Z,8.60
2022-12-08T07:06:31.430Z,9.50
2022-12-08T07:09:05.647Z,8.37
2022-12-08T07:11:49.659Z,10.67
2022-12-08T07:14:25.007Z,9.80
2022-12-08T07:17:03.621Z,9.53
2022-12-08T07:19:40.591Z,8.97
2022-12-08T07:22:14.227Z,8.07
2022-12-08T07:24:48.534Z,8.77
2022-12-08T07:27:24.317Z,9.07
2022-12-08T07:29:58.205Z,8.50
2022-12-08T07:32:31.886Z,10.23
2022-12-08T07:35:08.992Z,9.10
2022-12-08T07:37:43.101Z,8.97
2022-12-08T07:40:17.211Z,10.17
2022-12-08T07:42:54.524Z,9.90
2022-12-08T07:45:35.745Z,9.10
2022-12-08T07:48:10.411Z,9.73
2022-12-08T07:50:46.563Z,9.70
2022-12-08T07:53:22.624Z,8.83
2022-12-08T07:55:56.521Z,8.27
2022-12-08T07:58:30.679Z,9.53
2022-12-08T08:01:05.176Z,8.60
2022-12-08T08:03:39.181Z,9.30
2022-12-08T08:06:14.535Z,9.23
2022-12-08T08:08:48.329Z,9.63
2022-12-08T08:11:23.390Z,8.33
2022-12-08T08:13:58.915Z,7.83
2022-12-08T08:16:38.088Z,7.80
2022-12-08T08:19:12.251Z,7.80
2022-12-08T08:21:48.020Z,8.97
2022-12-08T08:24:24.421Z,7.17
2022-12-08T08:26:58.775Z,8.20
2022-12-08T08:29:34.248Z,7.70
2022-12-08T08:32:11.417Z,6.37
2022-12-08T08:34:45.003Z,6.80
2022-12-08T08:37:20.243Z,8.00
2022-12-08T08:39:54.036Z,7.50
2022-12-08T08:42:27.834Z,7.70
2022-12-08T08:45:01.672Z,8.27
2022-12-08T08:47:38.632Z,7.20
2022-12-08T08:50:14.493Z,7.40
2022-12-08T08:52:51.979Z,8.53
2022-12-08T08:55:28.735Z,8.83
2022-12-08T08:58:03.830Z,8.67
2022-12-08T09:00:40.034Z,10.57
2022-12-08T09:03:13.998Z,9.20
2022-12-08T09:05:48.012Z,9.40
2022-12-08T09:08:24.087Z,10.43
2022-12-08T09:10:57.830Z,9.13
2022-12-08T09:13:41.763Z,8.53
2022-12-08T09:16:16.149Z,8.50
2022-12-08T09:18:49.977Z,8.97
2022-12-08T09:21:28.447Z,8.40
2022-12-08T09:24:04.187Z,8.43
2022-12-08T09:26:38.392Z,8.50
2022-12-08T09:29:13.841Z,8.43
2022-12-08T09:31:47.644Z,8.93
2022-12-08T09:34:21.099Z,8.23
2022-12-08T09:36:54.845Z,9.07
2022-12-08T09:39:30.177Z,7.90
2022-12-08T09:42:12.700Z,8.87
2022-12-08T09:45:03.695Z,8.83
2022-12-08T09:47:45.586Z,8.60
2022-12-08T09:50:39.581Z,9.80
2022-12-08T09:53:21.831Z,9.27
2022-12-08T09:56:03.461Z,9.10
2022-12-08T09:58:52.762Z,10.00
2022-12-08T10:01:33.153Z,9.70
2022-12-08T10:04:23.898Z,10.50
2022-12-08T10:07:15.386Z,10.30
2022-12-08T10:10:04.698Z,9.80
2022-12-08T10:12:50.319Z,10.17
2022-12-08T10:15:47.266Z,10.47
2022-12-08T10:18:38.076Z,10.37
2022-12-08T10:21:20.491Z,9.97
2022-12-08T10:24:00.246Z,10.13
2022-12-08T10:26:35.353Z,9.90
2022-12-08T10:29:15.035Z,10.63
2022-12-08T10:31:49.776Z,11.37
2022-12-08T10:34:26.432Z,10.97
2022-12-08T10:37:11.539Z,10.50
2022-12-08T10:39:45.863Z,10.80
2022-12-08T10:42:23.623Z,10.50
2022-12-08T10:45:25.135Z,10.80
2022-12-08T10:48:06.386Z,10.80
2022-12-08T10:50:46.378Z,10.30
2022-12-08T10:53:25.039Z,8.93
2022-12-08T10:56:17.231Z,8.73
2022-12-08T10:58:50.814Z,8.77
2022-12-08T11:01:34.399Z,8.50
2022-12-08T11:04:17.898Z,8.60
2022-12-08T11:06:54.212Z,8.73
2022-12-08T11:09:41.294Z,8.87
2022-12-08T11:12:20.214Z,8.13
2022-12-08T11:15:03.130Z,8.73
2022-12-08T11:17:40.619Z,8.60
2022-12-08T11:20:25.154Z,9.17
2022-12-08T11:23:00.502Z,8.97
2022-12-08T11:25:34.468Z,8.87
2022-12-08T11:28:12.441Z,9.17
2022-12-08T11:30:51.417Z,9.70
2022-12-08T11:33:31.144Z,9.93
2022-12-08T11:36:10.543Z,8.87
2022-12-08T11:38:56.237Z,8.97
2022-12-08T11:41:39.314Z,11.07
2022-12-08T11:44:30.547Z,11.77
2022-12-08T11:47:21.824Z,15.80
2022-12-08T11:50:24.665Z,13.73
2022-12-08T11:53:04.186Z,14.33
2022-12-08T11:55:48.101Z,13.33
2022-12-08T11:58:36.466Z,13.10
2022-12-08T12:01:23.579Z,12.13
2022-12-08T12:04:27.620Z,16.63
2022-12-08T12:07:55.302Z,13.00
2022-12-08T12:11:02.436Z,12.63
2022-12-08T12:14:01.011Z,11.77
2022-12-08T12:16:57.925Z,13.27
2022-12-08T12:19:40.603Z,11.83
2022-12-08T12:22:19.124Z,10.77
2022-12-08T12:24:58.858Z,11.03
2022-12-08T12:27:41.472Z,10.03
2022-12-08T12:30:24.894Z,10.83
2022-12-08T12:33:09.467Z,9.97
2022-12-08T12:35:48.737Z,9.10
2022-12-08T12:39:00.843Z,9.60
2022-12-08T12:41:47.551Z,9.87
2022-12-08T12:44:39.992Z,10.00
2022-12-08T12:48:12.062Z,9.40
2022-12-08T12:50:48.118Z,8.50
2022-12-08T12:53:52.448Z,8.50
2022-12-08T12:56:55.548Z,7.80
2022-12-08T12:59:50.112Z,8.10
2022-12-08T13:02:31.433Z,8.17
2022-12-08T13:05:16.680Z,9.17
2022-12-08T13:07:56.492Z,8.40
2022-12-08T13:10:34.604Z,8.43
2022-12-08T13:13:19.192Z,8.20
2022-12-08T13:15:57.234Z,19.43
2022-12-08T13:18:41.002Z,14.33
2022-12-08T13:21:23.310Z,9.70
2022-12-08T13:24:17.704Z,9.93
2022-12-08T13:27:12.770Z,9.50
2022-12-08T13:30:06.612Z,7.77
2022-12-08T13:33:19.411Z,8.67
2022-12-08T13:36:06.500Z,9.00
2022-12-08T13:38:48.430Z,8.17
2022-12-08T13:41:30.681Z,8.13
2022-12-08T13:47:33.263Z,8.13
2022-12-08T13:59:30.573Z,8.20
2022-12-08T14:02:15.427Z,8.23
2022-12-08T14:07:46.004Z,7.93
2022-12-08T14:10:24.836Z,8.37
2022-12-08T14:13:07.701Z,7.93
2022-12-08T14:15:47.742Z,7.87
2022-12-08T14:18:27.882Z,7.57
2022-12-08T14:21:21.446Z,10.70
2022-12-08T14:23:56.491Z,9.87
2022-12-08T14:26:36.873Z,9.30
2022-12-08T14:29:26.978Z,9.07
2022-12-08T14:32:00.670Z,9.13
2022-12-08T14:34:41.905Z,9.33
2022-12-08T14:37:16.137Z,9.03
2022-12-08T14:39:50.475Z,9.97
2022-12-08T14:42:27.661Z,9.23
2022-12-08T14:45:11.509Z,10.57
2022-12-08T14:47:45.923Z,9.93
2022-12-08T14:50:45.772Z,10.40
2022-12-08T14:53:19.999Z,10.90
2022-12-08T14:55:54.107Z,11.27
2022-12-08T14:58:37.298Z,10.20
2022-12-08T15:01:16.936Z,9.27
2022-12-08T15:03:51.943Z,8.33
2022-12-08T15:06:27.320Z,11.23
2022-12-08T15:09:16.013Z,9.17
2022-12-08T15:12:03.503Z,9.10
2022-12-08T15:14:40.569Z,8.97
2022-12-08T15:17:44.532Z,9.27
2022-12-08T15:20:35.870Z,9.23
2022-12-08T15:23:32.604Z,9.17
2022-12-08T15:26:07.377Z,8.97
2022-12-08T15:28:41.229Z,12.53
2022-12-08T15:31:18.691Z,11.10
2022-12-08T15:33:56.078Z,9.10
2022-12-08T15:36:32.504Z,8.67
2022-12-08T15:39:30.406Z,9.10
2022-12-08T15:42:16.420Z,8.83
2022-12-08T15:44:50.801Z,8.50
2022-12-08T15:47:26.765Z,17.17
2022-12-08T15:50:07.995Z,13.83
2022-12-08T15:52:42.460Z,11.60
2022-12-08T15:55:19.596Z,13.37
2022-12-08T16:00:54.522Z,12.57
2022-12-08T16:09:30.319Z,12.00
2022-12-08T16:12:22.350Z,13.70
2022-12-08T16:15:48.414Z,13.97
2022-12-08T16:17:53.087Z,12.97
2022-12-08T16:21:05.544Z,14.37
2022-12-08T16:23:42.163Z,12.87
2022-12-08T16:29:23.109Z,13.63
2022-12-08T16:31:57.406Z,17.43
2022-12-08T16:34:32.082Z,15.63
2022-12-08T16:37:06.323Z,13.97
2022-12-08T16:39:46.131Z,14.23
2022-12-08T16:42:39.870Z,13.97
2022-12-08T16:45:17.435Z,12.30
2022-12-08T16:47:54.630Z,12.43
2022-12-08T16:50:31.057Z,16.20
2022-12-08T16:53:09.066Z,16.20
2022-12-08T16:55:49.358Z,13.10
2022-12-08T16:58:24.109Z,12.60
2022-12-08T17:00:58.036Z,13.23
2022-12-08T17:03:35.987Z,13.17
2022-12-08T17:06:14.650Z,13.10
2022-12-08T17:08:50.804Z,12.90
2022-12-08T17:11:28.520Z,13.37
2022-12-08T17:14:02.199Z,11.10
2022-12-08T17:16:36.283Z,14.57
2022-12-08T17:19:15.278Z,14.13
2022-12-08T17:21:49.278Z,12.30
2022-12-08T17:24:29.097Z,12.77
2022-12-08T17:27:06.700Z,12.07
2022-12-08T17:29:40.497Z,10.83
2022-12-08T17:32:14.282Z,9.90
2022-12-08T17:34:48.455Z,11.50
2022-12-08T17:37:23.113Z,13.77
2022-12-08T17:39:58.876Z,11.50
2022-12-08T17:42:34.749Z,11.20
2022-12-08T17:45:10.153Z,10.10
2022-12-08T17:47:45.918Z,12.77
2022-12-08T17:50:21.162Z,10.20
2022-12-08T17:52:54.706Z,10.30
2022-12-08T17:55:28.561Z,11.00
2022-12-08T17:58:16.386Z,10.60
2022-12-08T18:00:51.098Z,11.53
2022-12-08T18:03:31.796Z,11.90
2022-12-08T18:06:10.431Z,11.60
2022-12-08T18:08:48.299Z,13.10
2022-12-08T18:11:24.634Z,10.77
2022-12-08T18:14:00.641Z,11.13
2022-12-08T18:16:35.863Z,11.97
2022-12-08T18:19:17.260Z,10.43
2022-12-08T18:21:51.516Z,12.50
2022-12-08T18:24:30.182Z,12.53
2022-12-08T18:27:03.878Z,12.83
2022-12-08T18:29:39.647Z,14.33
2022-12-08T18:32:13.969Z,13.47
2022-12-08T18:34:48.063Z,12.40
2022-12-08T18:37:24.564Z,15.93
2022-12-08T18:40:01.938Z,13.40
2022-12-08T18:42:35.969Z,11.00
2022-12-08T18:45:15.708Z,12.20
2022-12-08T18:47:57.403Z,11.50
2022-12-08T18:50:30.991Z,11.90
2022-12-08T18:53:06.849Z,11.67
2022-12-08T18:55:47.083Z,13.97
2022-12-08T18:58:23.350Z,11.37
2022-12-08T19:01:00.497Z,13.07
2022-12-08T19:03:34.564Z,12.07
2022-12-08T19:06:10.185Z,12.03
2022-12-08T19:09:01.698Z,11.43
2022-12-08T19:11:35.830Z,12.53
2022-12-08T19:14:10.651Z,13.83
2022-12-08T19:16:46.514Z,13.27
2022-12-08T19:19:22.157Z,14.87
2022-12-08T19:21:56.585Z,14.57
2022-12-08T19:24:32.350Z,15.90
2022-12-08T19:27:06.218Z,14.57
2022-12-08T19:29:42.567Z,13.80
2022-12-08T19:32:19.697Z,14.83
2022-12-08T19:34:54.658Z,16.80
2022-12-08T19:37:28.445Z,15.17
2022-12-08T19:40:26.284Z,13.90
2022-12-08T19:43:40.904Z,14.80
2022-12-08T19:46:16.714Z,14.97
2022-12-08T19:48:52.059Z,14.17
2022-12-08T19:51:26.016Z,14.47
2022-12-08T19:54:06.008Z,14.03
2022-12-08T19:56:39.844Z,14.47
2022-12-08T19:59:16.001Z,13.37
2022-12-08T20:01:53.780Z,14.23
2022-12-08T20:04:34.132Z,13.50
2022-12-08T20:07:22.526Z,20.17
2022-12-08T20:09:57.553Z,15.90
2022-12-08T20:12:34.022Z,14.97
2022-12-08T20:15:11.303Z,14.80
2022-12-08T20:17:48.175Z,14.63
2022-12-08T20:20:23.903Z,14.33
2022-12-08T20:22:59.998Z,15.87
2022-12-08T20:25:40.429Z,14.07
2022-12-08T20:28:14.481Z,14.17
2022-12-08T20:30:49.188Z,14.57
2022-12-08T20:33:28.060Z,15.43
2022-12-08T20:36:08.461Z,13.67
2022-12-08T20:38:42.415Z,16.13
2022-12-08T20:41:26.756Z,15.20
2022-12-08T20:44:02.321Z,16.00
2022-12-08T20:46:37.084Z,14.03
2022-12-08T20:49:28.326Z,15.47
2022-12-08T20:52:06.782Z,14.13
2022-12-08T20:54:43.378Z,13.77
2022-12-08T20:57:18.001Z,14.50
2022-12-08T20:59:53.404Z,14.03
2022-12-08T21:02:45.107Z,14.47
2022-12-08T21:05:22.741Z,16.63
2022-12-08T21:07:58.714Z,14.40
2022-12-08T21:10:43.493Z,14.47
2022-12-08T21:13:17.795Z,16.57
2022-12-08T21:15:52.427Z,15.30
2022-12-08T21:18:27.732Z,15.57
2022-12-08T21:21:05.620Z,16.10
2022-12-08T21:23:42.400Z,14.60
2022-12-08T21:26:30.923Z,15.50
2022-12-08T21:29:06.010Z,13.17
2022-12-08T21:31:44.117Z,13.57
2022-12-08T21:34:17.964Z,13.07
2022-12-08T21:36:53.154Z,14.50
2022-12-08T21:39:33.743Z,12.63
2022-12-08T21:42:34.053Z,13.20
2022-12-08T21:45:17.807Z,15.47
2022-12-08T21:47:52.896Z,13.23
2022-12-08T21:50:27.258Z,14.17
2022-12-08T21:53:19.904Z,14.67
2022-12-08T21:55:57.072Z,14.40
2022-12-08T21:58:33.072Z,14.57
2022-12-08T22:01:21.032Z,14.30
2022-12-08T22:03:58.930Z,13.03
2022-12-08T22:06:37.565Z,13.83
2022-12-08T22:09:15.566Z,13.33
2022-12-08T22:11:54.599Z,12.60
2022-12-08T22:14:36.877Z,13.67
2022-12-08T22:17:11.706Z,11.87
2022-12-08T22:19:50.348Z,12.37
2022-12-08T22:22:38.231Z,13.03
2022-12-08T22:25:13.312Z,13.90
2022-12-08T22:27:48.640Z,13.63
2022-12-08T22:30:22.711Z,12.63
2022-12-08T22:32:56.885Z,12.03
2022-12-08T22:35:32.921Z,12.97
2022-12-08T22:38:07.411Z,12.97
2022-12-08T22:40:41.932Z,12.03
2022-12-08T22:43:20.448Z,13.33
2022-12-08T22:45:57.410Z,13.40
2022-12-08T22:48:31.048Z,12.60
2022-12-08T22:51:05.081Z,12.87
2022-12-08T22:53:39.331Z,11.80
2022-12-08T22:56:15.554Z,12.37
2022-12-08T22:58:51.647Z,13.23
2022-12-08T23:01:34.601Z,11.27
2022-12-08T23:04:17.501Z,13.33
2022-12-08T23:06:52.119Z,12.90
2022-12-08T23:09:41.229Z,13.50
2022-12-08T23:12:22.001Z,12.13
2022-12-08T23:14:57.933Z,11.37
2022-12-08T23:17:37.323Z,10.10
2022-12-08T23:20:16.509Z,11.53
2022-12-08T23:22:52.597Z,11.80
2022-12-08T23:25:45.261Z,11.53
2022-12-08T23:28:52.042Z,11.87
2022-12-08T23:31:28.565Z,12.40
2022-12-08T23:34:06.983Z,12.77
2022-12-08T23:36:45.431Z,12.53
2022-12-08T23:39:24.215Z,11.87
2022-12-08T23:41:58.320Z,13.30
2022-12-08T23:44:32.367Z,13.23
2022-12-08T23:47:09.684Z,12.80
2022-12-08T23:49:44.379Z,12.60
2022-12-08T23:52:18.346Z,11.33
2022-12-08T23:54:56.130Z,12.20
2022-12-08T23:57:30.712Z,12.23
